createdAt,value
2019-03-05T00:02:08.817Z,99363.74
2019-03-05T00:04:38.528Z,99367.17
2019-03-05T00:07:08.743Z,99366.69
2019-03-05T00:09:38.352Z,99368.91
2019-03-05T00:12:08.053Z,99356.80
2019-03-05T00:14:38.172Z,99361.39
2019-03-05T00:17:07.879Z,99363.50
2019-03-05T00:19:38.715Z,99356.91
2019-03-05T00:22:08.889Z,99362.52
2019-03-05T00:25:00.670Z,99358.66
2019-03-05T00:27:32.536Z,99357.35
2019-03-05T00:30:20.246Z,99359.23
2019-03-05T00:32:56.527Z,99353.67
2019-03-05T00:35:29.297Z,99354.15
2019-03-05T00:38:03.505Z,99349.35
2019-03-05T00:40:55.844Z,99347.34
2019-03-05T00:43:35.075Z,99342.14
2019-03-05T00:46:20.043Z,99342.91
2019-03-05T00:49:02.447Z,99338.80
2019-03-05T00:51:47.226Z,99351.97
2019-03-05T00:54:42.619Z,99335.12
2019-03-05T00:57:15.507Z,99342.47
2019-03-05T00:59:51.337Z,99336.35
2019-03-05T01:02:39.084Z,99341.12
2019-03-05T01:05:18.299Z,99348.88
2019-03-05T01:07:47.942Z,99349.67
2019-03-05T01:10:19.190Z,99354.92
2019-03-05T01:12:48.788Z,99354.14
2019-03-05T01:15:18.485Z,99347.77
2019-03-05T01:17:48.557Z,99344.97
2019-03-05T01:20:18.198Z,99351.52
2019-03-05T01:22:47.983Z,99359.59
2019-03-05T01:25:29.127Z,99353.23
2019-03-05T01:27:58.936Z,99365.95
2019-03-05T01:30:55.447Z,99343.91
2019-03-05T01:33:26.887Z,99351.91
2019-03-05T01:36:01.526Z,99358.69
2019-03-05T01:38:32.762Z,99351.11
2019-03-05T01:41:04.413Z,99355.95
2019-03-05T01:43:34.166Z,99354.84
2019-03-05T01:46:04.242Z,99350.91
2019-03-05T01:48:33.907Z,99359.48
2019-03-05T01:51:03.659Z,99348.20
2019-03-05T01:53:33.771Z,99343.75
2019-03-05T01:56:03.434Z,99338.68
2019-03-05T01:58:33.102Z,99324.86
2019-03-05T02:01:03.617Z,99325.37
2019-03-05T02:03:33.640Z,99321.20
2019-03-05T02:06:04.728Z,99331.44
2019-03-05T02:08:34.480Z,99311.46
2019-03-05T02:11:04.393Z,99324.25
2019-03-05T02:13:34.471Z,99320.59
2019-03-05T02:16:04.121Z,99312.30
2019-03-05T02:18:33.762Z,99307.44
2019-03-05T02:21:03.921Z,99311.46
2019-03-05T02:23:36.684Z,99320.04
2019-03-05T02:26:26.203Z,99305.42
2019-03-05T02:29:01.520Z,99301.09
2019-03-05T02:31:53.095Z,99296.56
2019-03-05T02:34:25.939Z,99302.68
2019-03-05T02:37:08.344Z,99293.14
2019-03-05T02:40:00.614Z,99296.56
2019-03-05T02:42:48.829Z,99288.66
2019-03-05T02:45:31.713Z,99287.78
2019-03-05T02:48:23.445Z,99283.73
2019-03-05T02:51:24.921Z,99293.42
2019-03-05T02:54:07.120Z,99280.11
2019-03-05T02:56:42.904Z,99272.28
2019-03-05T02:59:11.965Z,99285.55
2019-03-05T03:01:46.197Z,99282.66
2019-03-05T03:04:17.910Z,99265.05
2019-03-05T03:06:47.587Z,99268.98
2019-03-05T03:09:32.511Z,99270.17
2019-03-05T03:12:02.586Z,99271.72
2019-03-05T03:14:32.342Z,99280.39
2019-03-05T03:17:01.944Z,99274.75
2019-03-05T03:19:32.073Z,99271.72
2019-03-05T03:22:01.768Z,99259.41
2019-03-05T03:24:31.478Z,99267.79
2019-03-05T03:27:01.697Z,99270.22
2019-03-05T03:29:32.532Z,99261.23
2019-03-05T03:32:05.418Z,99255.23
2019-03-05T03:34:35.044Z,99256.19
2019-03-05T03:37:05.450Z,99261.52
2019-03-05T03:39:35.093Z,99260.01
2019-03-05T03:42:04.866Z,99261.91
2019-03-05T03:44:34.987Z,99240.66
2019-03-05T03:47:04.713Z,99259.33
2019-03-05T03:49:34.353Z,99249.64
2019-03-05T03:52:04.435Z,99251.98
2019-03-05T03:54:34.123Z,99255.75
2019-03-05T03:57:05.344Z,99262.31
2019-03-05T03:59:35.488Z,99263.22
2019-03-05T04:02:06.217Z,99263.62
2019-03-05T04:04:35.863Z,99249.31
2019-03-05T04:07:06.051Z,99251.86
2019-03-05T04:09:35.750Z,99257.86
2019-03-05T04:12:05.402Z,99251.58
2019-03-05T04:14:35.622Z,99250.03
2019-03-05T04:17:05.304Z,99258.97
2019-03-05T04:19:35.453Z,99257.30
2019-03-05T04:22:05.522Z,99233.91
2019-03-05T04:24:36.256Z,99241.05
2019-03-05T04:27:05.945Z,99235.17
2019-03-05T04:29:36.044Z,99235.97
2019-03-05T04:32:05.797Z,99236.17
2019-03-05T04:34:36.483Z,99230.73
2019-03-05T04:37:06.551Z,99240.18
2019-03-05T04:39:36.296Z,99246.97
2019-03-05T04:42:05.940Z,99236.53
2019-03-05T04:44:43.587Z,99246.45
2019-03-05T04:47:13.464Z,99261.79
2019-03-05T04:49:48.291Z,99265.92
2019-03-05T04:52:19.130Z,99262.50
2019-03-05T04:54:49.130Z,99254.20
2019-03-05T04:57:18.825Z,99256.19
2019-03-05T04:59:54.737Z,99251.30
2019-03-05T05:02:30.732Z,99237.80
2019-03-05T05:05:00.386Z,99244.44
2019-03-05T05:07:32.230Z,99250.83
2019-03-05T05:10:03.756Z,99244.19
2019-03-05T05:12:33.869Z,99253.07
2019-03-05T05:15:04.116Z,99252.75
2019-03-05T05:17:33.830Z,99258.41
2019-03-05T05:20:08.191Z,99263.36
2019-03-05T05:22:37.761Z,99250.52
2019-03-05T05:25:07.979Z,99224.09
2019-03-05T05:27:37.593Z,99242.83
2019-03-05T05:30:10.842Z,99220.20
2019-03-05T05:32:41.025Z,99213.72
2019-03-05T05:35:10.601Z,99210.45
2019-03-05T05:37:40.243Z,99217.69
2019-03-05T05:40:33.094Z,99196.33
2019-03-05T05:43:03.049Z,99205.06
2019-03-05T05:45:36.262Z,99191.72
2019-03-05T05:48:05.969Z,99199.94
2019-03-05T05:50:36.080Z,99200.37
2019-03-05T05:53:05.738Z,99197.24
2019-03-05T05:55:35.493Z,99185.12
2019-03-05T05:58:05.724Z,99197.59
2019-03-05T06:00:36.927Z,99187.04
2019-03-05T06:03:07.119Z,99188.23
2019-03-05T06:05:36.790Z,99204.66
2019-03-05T06:08:06.443Z,99198.21
2019-03-05T06:10:36.538Z,99199.23
2019-03-05T06:13:06.180Z,99189.14
2019-03-05T06:15:35.820Z,99182.97
2019-03-05T06:18:06.039Z,99177.55
2019-03-05T06:20:35.754Z,99178.98
2019-03-05T06:23:05.459Z,99190.54
2019-03-05T06:25:35.624Z,99188.61
2019-03-05T06:28:05.266Z,99192.23
2019-03-05T06:30:42.147Z,99184.72
2019-03-05T06:33:12.226Z,99181.47
2019-03-05T06:35:51.961Z,99168.34
2019-03-05T06:38:22.171Z,99185.02
2019-03-05T06:40:51.862Z,99168.89
2019-03-05T06:43:26.146Z,99152.63
2019-03-05T06:45:58.239Z,99166.41
2019-03-05T06:48:27.938Z,99164.50
2019-03-05T06:50:57.580Z,99154.20
2019-03-05T06:53:27.782Z,99157.22
2019-03-05T06:55:57.474Z,99150.13
2019-03-05T06:58:27.184Z,99144.78
2019-03-05T07:00:57.409Z,99140.45
2019-03-05T07:03:27.054Z,99116.98
2019-03-05T07:06:33.453Z,99125.55
2019-03-05T07:09:09.457Z,99124.39
2019-03-05T07:11:59.009Z,99115.38
2019-03-05T07:14:59.492Z,99115.38
2019-03-05T07:17:51.937Z,99114.69
2019-03-05T07:20:40.479Z,99112.76
2019-03-05T07:23:22.261Z,99107.58
2019-03-05T07:25:52.493Z,99110.02
2019-03-05T07:28:22.255Z,99105.30
2019-03-05T07:30:52.067Z,99105.34
2019-03-05T07:33:22.201Z,99097.88
2019-03-05T07:35:51.842Z,99098.20
2019-03-05T07:38:21.499Z,99077.09
2019-03-05T07:40:51.688Z,99079.16
2019-03-05T07:43:23.598Z,99088.34
2019-03-05T07:45:53.692Z,99069.02
2019-03-05T07:48:23.403Z,99090.27
2019-03-05T07:50:53.128Z,99081.48
2019-03-05T07:53:30.398Z,99061.57
2019-03-05T07:55:57.955Z,99056.00
2019-03-05T07:58:28.329Z,99051.98
2019-03-05T08:01:00.056Z,99067.21
2019-03-05T08:03:37.825Z,99059.06
2019-03-05T08:06:08.828Z,99061.77
2019-03-05T08:09:16.899Z,99055.83
2019-03-05T08:15:22.444Z,99058.81
2019-03-05T08:17:52.151Z,99049.03
2019-03-05T08:20:31.623Z,99056.77
2019-03-05T08:23:08.939Z,99050.34
2019-03-05T08:25:42.273Z,99047.56
2019-03-05T08:28:12.926Z,99037.53
2019-03-05T08:30:42.612Z,99040.50
2019-03-05T08:33:12.779Z,99028.68
2019-03-05T08:35:44.763Z,99034.61
2019-03-05T08:38:15.483Z,99019.66
2019-03-05T08:40:45.242Z,99019.66
2019-03-05T08:43:14.883Z,99015.93
2019-03-05T08:45:45.059Z,99011.03
2019-03-05T08:48:14.915Z,99012.36
2019-03-05T08:50:44.577Z,98994.70
2019-03-05T08:53:14.803Z,99004.31
2019-03-05T08:55:44.448Z,98999.92
2019-03-05T08:58:14.113Z,99000.44
2019-03-05T09:00:44.333Z,99011.30
2019-03-05T09:03:15.166Z,99016.02
2019-03-05T09:05:44.748Z,99011.20
2019-03-05T09:08:14.992Z,99013.67
2019-03-05T09:10:44.647Z,99001.21
2019-03-05T09:13:14.297Z,98999.67
2019-03-05T09:15:44.431Z,98999.88
2019-03-05T09:18:14.240Z,98999.39
2019-03-05T09:20:44.051Z,98990.59
2019-03-05T09:23:14.139Z,98990.21
2019-03-05T09:25:43.787Z,98993.41
2019-03-05T09:28:13.484Z,99001.14
2019-03-05T09:30:43.708Z,98980.22
2019-03-05T09:33:13.516Z,98965.69
2019-03-05T09:35:43.163Z,98976.02
2019-03-05T09:38:13.443Z,98963.34
2019-03-05T09:40:43.141Z,98957.40
2019-03-05T09:43:12.863Z,98957.28
2019-03-05T09:45:43.082Z,98933.73
2019-03-05T09:48:12.775Z,98931.06
2019-03-05T09:50:42.465Z,98927.55
2019-03-05T09:53:12.720Z,98938.45
2019-03-05T09:55:42.322Z,98930.19
2019-03-05T09:58:12.246Z,98934.59
2019-03-05T10:00:42.250Z,98918.22
2019-03-05T10:03:11.763Z,98923.66
2019-03-05T10:05:41.261Z,98912.89
2019-03-05T10:08:11.173Z,98908.94
2019-03-05T10:10:40.783Z,98905.06
2019-03-05T10:13:10.282Z,98907.30
2019-03-05T10:15:40.159Z,98899.36
2019-03-05T10:18:12.902Z,98882.67
2019-03-05T10:20:40.850Z,98869.05
2019-03-05T10:23:10.860Z,98858.92
2019-03-05T10:25:40.364Z,98855.13
2019-03-05T10:28:09.864Z,98849.30
2019-03-05T10:30:41.312Z,98845.16
2019-03-05T10:33:11.495Z,98833.75
2019-03-05T10:35:41.653Z,98840.72
2019-03-05T10:38:11.641Z,98814.80
2019-03-05T10:40:46.732Z,98814.58
2019-03-05T10:43:17.752Z,98813.43
2019-03-05T10:45:48.203Z,98816.37
2019-03-05T10:48:20.379Z,98789.19
2019-03-05T10:50:50.044Z,98794.50
2019-03-05T10:53:20.881Z,98795.36
2019-03-05T10:55:50.687Z,98785.44
2019-03-05T10:58:20.507Z,98792.09
2019-03-05T11:00:53.121Z,98783.17
2019-03-05T11:03:24.165Z,98763.84
2019-03-05T11:05:54.599Z,98770.10
2019-03-05T11:08:25.452Z,98763.95
2019-03-05T11:10:55.744Z,98764.93
2019-03-05T11:13:25.513Z,98749.70
2019-03-05T11:15:57.613Z,98727.97
2019-03-05T11:18:29.762Z,98742.97
2019-03-05T11:20:59.241Z,98734.13
2019-03-05T11:23:29.359Z,98737.16
2019-03-05T11:25:59.271Z,98738.94
2019-03-05T11:28:29.512Z,98713.94
2019-03-05T11:30:59.531Z,98734.08
2019-03-05T11:33:29.323Z,98725.16
2019-03-05T11:36:01.394Z,98721.17
2019-03-05T11:38:31.581Z,98753.98
2019-03-05T11:41:01.315Z,98741.58
2019-03-05T11:43:30.956Z,98749.05
2019-03-05T11:46:01.090Z,98740.75
2019-03-05T11:48:30.759Z,98726.52
2019-03-05T11:51:00.454Z,98733.51
2019-03-05T11:53:30.676Z,98745.09
2019-03-05T11:56:00.377Z,98753.30
2019-03-05T11:58:30.086Z,98737.99
2019-03-05T12:01:01.851Z,98734.62
2019-03-05T12:03:31.637Z,98733.05
2019-03-05T12:06:01.778Z,98748.88
2019-03-05T12:08:31.486Z,98748.59
2019-03-05T12:11:01.188Z,98727.02
2019-03-05T12:13:32.241Z,98711.55
2019-03-05T12:16:01.943Z,98723.05
2019-03-05T12:18:31.624Z,98686.80
2019-03-05T12:21:01.775Z,98676.90
2019-03-05T12:23:31.479Z,98695.38
2019-03-05T12:26:01.133Z,98685.11
2019-03-05T12:28:31.306Z,98695.23
2019-03-05T12:31:01.007Z,98704.17
2019-03-05T12:33:30.728Z,98715.52
2019-03-05T12:36:00.843Z,98704.78
2019-03-05T12:38:30.648Z,98715.66
2019-03-05T12:41:00.330Z,98722.78
2019-03-05T12:43:30.574Z,98709.63
2019-03-05T12:46:00.251Z,98708.16
2019-03-05T12:48:39.611Z,98711.57
2019-03-05T12:51:01.707Z,98712.90
2019-03-05T12:53:31.464Z,98713.62
2019-03-05T12:56:01.170Z,98716.02
2019-03-05T12:58:32.408Z,98715.19
2019-03-05T13:01:02.154Z,98706.97
2019-03-05T13:03:32.037Z,98716.03
2019-03-05T13:06:02.154Z,98715.90
2019-03-05T13:08:31.851Z,98707.09
2019-03-05T13:11:01.570Z,98711.33
2019-03-05T13:13:37.412Z,98728.34
2019-03-05T13:16:07.245Z,98714.21
2019-03-05T13:18:37.351Z,98710.24
2019-03-05T13:21:07.739Z,98719.16
2019-03-05T13:23:38.818Z,98700.69
2019-03-05T13:26:11.042Z,98707.33
2019-03-05T13:28:44.492Z,98695.63
2019-03-05T13:31:15.209Z,98697.33
2019-03-05T13:33:45.433Z,98715.30
2019-03-05T13:36:16.669Z,98708.31
2019-03-05T13:38:46.898Z,98719.52
2019-03-05T13:41:16.857Z,98722.06
2019-03-05T13:43:46.726Z,98723.01
2019-03-05T13:46:17.863Z,98709.00
2019-03-05T13:49:02.813Z,98722.88
2019-03-05T13:51:59.475Z,98716.12
2019-03-05T13:54:43.891Z,98717.58
2019-03-05T13:57:19.766Z,98709.35
2019-03-05T13:59:49.436Z,98714.06
2019-03-05T14:02:22.635Z,98722.86
2019-03-05T14:05:01.268Z,98721.45
2019-03-05T14:08:09.526Z,98728.78
2019-03-05T14:10:39.228Z,98730.96
2019-03-05T14:13:09.419Z,98716.14
2019-03-05T14:15:40.343Z,98710.31
2019-03-05T14:18:10.097Z,98709.14
2019-03-05T14:20:40.304Z,98718.67
2019-03-05T14:23:10.009Z,98719.83
2019-03-05T14:25:39.723Z,98726.72
2019-03-05T14:28:09.863Z,98725.64
2019-03-05T14:30:39.846Z,98734.08
2019-03-05T14:33:09.734Z,98725.63
2019-03-05T14:35:39.881Z,98733.92
2019-03-05T14:38:09.570Z,98736.94
2019-03-05T14:40:39.472Z,98733.56
2019-03-05T14:43:09.741Z,98747.19
2019-03-05T14:45:39.430Z,98743.45
2019-03-05T14:48:09.168Z,98740.56
2019-03-05T14:50:39.392Z,98745.74
2019-03-05T14:53:09.040Z,98744.17
2019-03-05T14:55:38.684Z,98740.55
2019-03-05T14:58:08.772Z,98743.30
2019-03-05T15:00:38.440Z,98737.06
2019-03-05T15:03:08.299Z,98729.33
2019-03-05T15:05:38.396Z,98730.28
2019-03-05T15:08:10.096Z,98743.33
2019-03-05T15:10:40.329Z,98739.59
2019-03-05T15:13:16.230Z,98738.86
2019-03-05T15:15:41.844Z,98750.42
2019-03-05T15:18:11.536Z,98742.97
2019-03-05T15:20:41.608Z,98744.16
2019-03-05T15:23:11.904Z,98754.41
2019-03-05T15:25:43.118Z,98749.91
2019-03-05T15:28:13.910Z,98756.80
2019-03-05T15:30:43.467Z,98752.11
2019-03-05T15:33:13.118Z,98771.05
2019-03-05T15:35:44.358Z,98792.12
2019-03-05T15:38:15.106Z,98787.94
2019-03-05T15:40:45.189Z,98802.73
2019-03-05T15:43:15.325Z,98800.08
2019-03-05T15:45:45.011Z,98812.48
2019-03-05T15:48:15.172Z,98813.17
2019-03-05T15:50:45.085Z,98830.78
2019-03-05T15:53:15.030Z,98825.67
2019-03-05T15:55:45.790Z,98832.30
2019-03-05T15:58:15.446Z,98843.28
2019-03-05T16:00:45.705Z,98857.50
2019-03-05T16:03:15.857Z,98857.09
2019-03-05T16:05:45.535Z,98865.05
2019-03-05T16:08:15.341Z,98875.02
2019-03-05T16:10:50.431Z,98884.39
2019-03-05T16:13:19.388Z,98897.19
2019-03-05T16:15:50.440Z,98897.42
2019-03-05T16:18:20.090Z,98884.58
2019-03-05T16:20:50.074Z,98907.34
2019-03-05T16:23:20.281Z,98906.97
2019-03-05T16:25:51.657Z,98920.67
2019-03-05T16:28:21.951Z,98924.38
2019-03-05T16:30:59.237Z,98929.67
2019-03-05T16:33:36.972Z,98932.42
2019-03-05T16:36:25.527Z,98955.02
2019-03-05T16:38:56.071Z,98958.30
2019-03-05T16:41:42.377Z,98967.32
2019-03-05T16:44:14.221Z,98972.77
2019-03-05T16:46:51.359Z,98979.94
2019-03-05T16:49:39.044Z,98989.98
2019-03-05T16:52:12.885Z,99007.70
2019-03-05T16:54:50.378Z,99019.59
2019-03-05T16:57:38.314Z,99029.80
2019-03-05T17:00:25.735Z,99026.84
2019-03-05T17:02:57.495Z,99036.23
2019-03-05T17:05:29.184Z,99048.41
2019-03-05T17:08:09.219Z,99042.55
2019-03-05T17:10:56.902Z,99051.80
2019-03-05T17:13:26.644Z,99054.98
2019-03-05T17:15:57.064Z,99069.59
2019-03-05T17:18:26.765Z,99069.11
2019-03-05T17:20:56.691Z,99066.45
2019-03-05T17:23:26.909Z,99072.49
2019-03-05T17:25:56.556Z,99067.48
2019-03-05T17:28:26.194Z,99074.64
2019-03-05T17:30:56.549Z,99081.88
2019-03-05T17:33:26.195Z,99084.34
2019-03-05T17:35:55.861Z,99088.11
2019-03-05T17:38:26.210Z,99094.03
2019-03-05T17:41:08.862Z,99104.58
2019-03-05T17:43:49.347Z,99102.31
2019-03-05T17:46:20.700Z,99105.19
2019-03-05T17:48:55.157Z,99115.67
2019-03-05T17:51:27.899Z,99118.16
2019-03-05T17:53:58.123Z,99115.11
2019-03-05T17:56:27.871Z,99116.69
2019-03-05T17:58:57.533Z,99127.38
2019-03-05T18:01:27.755Z,99133.45
2019-03-05T18:03:58.594Z,99135.91
2019-03-05T18:06:28.306Z,99138.16
2019-03-05T18:08:59.347Z,99136.19
2019-03-05T18:11:29.153Z,99141.63
2019-03-05T18:13:58.833Z,99142.09
2019-03-05T18:16:29.121Z,99145.63
2019-03-05T18:18:58.738Z,99147.53
2019-03-05T18:21:28.458Z,99158.83
2019-03-05T18:23:59.063Z,99163.09
2019-03-05T18:26:30.289Z,99162.74
2019-03-05T18:29:02.653Z,99164.27
2019-03-05T18:31:32.363Z,99176.15
2019-03-05T18:34:04.118Z,99179.48
2019-03-05T18:36:34.329Z,99171.83
2019-03-05T18:39:05.327Z,99181.84
2019-03-05T18:41:42.141Z,99169.44
2019-03-05T18:44:12.961Z,99180.66
2019-03-05T18:46:42.644Z,99182.94
2019-03-05T18:49:12.278Z,99180.78
2019-03-05T18:51:42.352Z,99180.91
2019-03-05T18:54:12.036Z,99180.56
2019-03-05T18:56:41.724Z,99188.39
2019-03-05T18:59:11.845Z,99202.98
2019-03-05T19:01:42.411Z,99217.66
2019-03-05T19:04:13.513Z,99213.02
2019-03-05T19:06:43.215Z,99219.94
